KMVN/MVN METAR and TAF weather

Enter ICAO airport designator
Station Type Date Time Source
KMVN METAR 2019/06/27 04:56 UTC NOAA

KMVN 270456Z AUTO VRB04KT 10SM CLR A3015 RMK AO2 SLPNO FZRANO $


Station Type Date Time Source
KMVN Decoded METAR 2019/06/27 04:56 UTC NOAA

Mount Vernon, Mount Vernon Airport, IL, United States (KMVN) 38-19N 088-52W
Jun 27, 2019 - 12:56 AM EDT / 2019.06.27 0456 UTC
Wind: Variable at 5 MPH (4 KT):0
Visibility: 10 mile(s):0
Sky conditions: clear
Pressure (altimeter): 30.15 in. Hg (1020 hPa)
ob: KMVN 270456Z AUTO VRB04KT 10SM CLR A3015 RMK AO2 SLPNO FZRANO
cycle: 5

Station Type Date Time Source
KMVN TAF 2019/06/27 02:09 UTC NOAA

TAF
AMD KMVN 270206Z 2702/2724 21006KT P6SM -SHRA SCT040 SCT090
FM270300 00000KT P6SM FEW040 SCT150
FM271000 23003KT P6SM VCSH FEW040 BKN090
FM271600 20005KT P6SM SCT040 BKN100
FM271800 18005KT P6SM VCTS SCT040CB BKN120

Example: see airport list